createdAt,value
2022-08-30T00:02:05.915Z,13.43
2022-08-30T00:04:32.815Z,8.98
2022-08-30T00:07:02.396Z,13.10
2022-08-30T00:09:29.248Z,14.05
2022-08-30T00:11:56.169Z,10.43
2022-08-30T00:14:23.103Z,10.93
2022-08-30T00:16:50.951Z,8.80
2022-08-30T00:19:17.879Z,9.65
2022-08-30T00:21:44.930Z,8.35
2022-08-30T00:24:11.886Z,8.73
2022-08-30T00:26:38.709Z,8.43
2022-08-30T00:29:05.558Z,9.90
2022-08-30T00:31:32.502Z,9.85
2022-08-30T00:33:59.515Z,12.07
2022-08-30T00:36:26.574Z,9.10
2022-08-30T00:38:53.941Z,10.13
2022-08-30T00:41:22.058Z,9.43
2022-08-30T00:43:48.910Z,9.75
2022-08-30T00:46:15.804Z,9.73
2022-08-30T00:48:46.270Z,9.75
2022-08-30T00:51:14.403Z,13.00
2022-08-30T00:53:49.034Z,10.85
2022-08-30T00:56:18.042Z,9.50
2022-08-30T00:58:49.354Z,9.93
2022-08-30T01:01:17.227Z,9.10
2022-08-30T01:03:45.426Z,7.88
2022-08-30T01:06:15.761Z,10.65
2022-08-30T01:08:43.698Z,10.85
2022-08-30T01:11:12.383Z,10.32
2022-08-30T01:13:40.768Z,7.50
2022-08-30T01:16:08.577Z,10.50
2022-08-30T01:18:37.210Z,10.75
2022-08-30T01:21:40.979Z,11.75
2022-08-30T01:24:09.449Z,10.32
2022-08-30T01:26:37.336Z,7.72
2022-08-30T01:29:10.413Z,10.55
2022-08-30T01:31:37.459Z,10.10
2022-08-30T01:34:07.657Z,10.75
2022-08-30T01:36:37.763Z,7.63
2022-08-30T01:39:16.319Z,10.05
2022-08-30T01:41:43.730Z,8.48
2022-08-30T01:44:12.432Z,7.47
2022-08-30T01:46:43.341Z,8.25
2022-08-30T01:49:13.169Z,9.95
2022-08-30T01:51:40.709Z,7.68
2022-08-30T01:54:08.679Z,11.50
2022-08-30T01:56:35.673Z,9.10
2022-08-30T01:59:03.323Z,8.02
2022-08-30T02:01:32.948Z,8.43
2022-08-30T02:04:00.789Z,8.73
2022-08-30T02:06:28.058Z,12.27
2022-08-30T02:08:55.145Z,12.10
2022-08-30T02:11:22.126Z,8.55
2022-08-30T02:13:49.394Z,11.35
2022-08-30T02:16:18.609Z,7.82
2022-08-30T02:18:45.743Z,6.63
2022-08-30T02:21:13.450Z,11.13
2022-08-30T02:23:41.107Z,9.15
2022-08-30T02:26:08.802Z,10.88
2022-08-30T02:28:35.791Z,10.18
2022-08-30T02:31:16.993Z,11.80
2022-08-30T02:33:46.786Z,10.73
2022-08-30T02:36:14.060Z,10.45
2022-08-30T02:38:40.917Z,11.38
2022-08-30T02:41:07.899Z,8.90
2022-08-30T02:43:34.812Z,9.30
2022-08-30T02:46:01.841Z,9.70
2022-08-30T02:48:28.760Z,7.72
2022-08-30T02:50:55.632Z,9.95
2022-08-30T02:53:23.176Z,10.27
2022-08-30T02:55:50.123Z,10.55
2022-08-30T02:58:17.033Z,9.00
2022-08-30T03:00:44.295Z,9.90
2022-08-30T03:03:11.274Z,8.50
2022-08-30T03:05:39.905Z,9.40
2022-08-30T03:08:08.281Z,10.20
2022-08-30T03:10:35.413Z,12.82
2022-08-30T03:13:03.476Z,8.60
2022-08-30T03:15:30.389Z,10.88
2022-08-30T03:17:58.579Z,10.82
2022-08-30T03:20:25.558Z,7.53
2022-08-30T03:22:52.994Z,9.38
2022-08-30T03:25:21.219Z,8.68
2022-08-30T03:27:49.502Z,11.30
2022-08-30T03:30:18.728Z,11.65
2022-08-30T03:32:46.078Z,10.25
2022-08-30T03:35:14.710Z,11.40
2022-08-30T03:37:41.667Z,10.82
2022-08-30T03:40:10.107Z,12.98
2022-08-30T03:42:37.791Z,10.65
2022-08-30T03:45:07.607Z,10.23
2022-08-30T03:47:34.692Z,11.65
2022-08-30T03:50:02.226Z,12.95
2022-08-30T03:52:29.128Z,11.23
2022-08-30T03:54:56.064Z,11.18
2022-08-30T03:57:24.559Z,10.52
2022-08-30T03:59:51.838Z,9.40
2022-08-30T04:02:19.345Z,11.13
2022-08-30T04:04:46.796Z,11.68
2022-08-30T04:07:13.686Z,11.02
2022-08-30T04:09:41.897Z,9.63
2022-08-30T04:12:09.354Z,11.93
2022-08-30T04:14:36.237Z,10.18
2022-08-30T04:17:03.347Z,7.53
2022-08-30T04:19:30.285Z,8.23
2022-08-30T04:21:57.402Z,10.55
2022-08-30T04:24:24.639Z,8.15
2022-08-30T04:26:51.602Z,9.05
2022-08-30T04:29:18.615Z,10.07
2022-08-30T04:31:45.803Z,8.05
2022-08-30T04:34:14.090Z,7.82
2022-08-30T04:36:41.169Z,9.75
2022-08-30T04:39:08.088Z,11.50
2022-08-30T04:41:37.195Z,13.75
2022-08-30T04:44:04.162Z,10.65
2022-08-30T04:46:31.117Z,10.32
2022-08-30T04:48:58.054Z,9.55
2022-08-30T04:51:25.018Z,9.98
2022-08-30T04:53:51.983Z,10.43
2022-08-30T04:56:24.893Z,11.27
2022-08-30T04:58:53.937Z,8.73
2022-08-30T05:01:25.378Z,9.00
2022-08-30T05:03:54.938Z,11.25
2022-08-30T05:06:23.571Z,9.50
2022-08-30T05:08:51.938Z,10.57
2022-08-30T05:11:19.117Z,9.70
2022-08-30T05:13:46.816Z,13.23
2022-08-30T05:16:19.503Z,10.88
2022-08-30T05:18:48.306Z,7.95
2022-08-30T05:21:18.725Z,9.27
2022-08-30T05:23:46.176Z,8.80
2022-08-30T05:26:18.245Z,10.32
2022-08-30T05:28:46.154Z,17.95
2022-08-30T05:31:19.797Z,11.95
2022-08-30T05:33:47.773Z,14.93
2022-08-30T05:36:16.244Z,8.70
2022-08-30T05:38:43.519Z,9.52
2022-08-30T05:41:11.310Z,6.95
2022-08-30T05:43:39.093Z,9.60
2022-08-30T05:46:12.120Z,14.55
2022-08-30T05:48:40.338Z,18.20
2022-08-30T05:51:13.860Z,14.75
2022-08-30T05:53:41.272Z,11.55
2022-08-30T05:56:11.753Z,10.15
2022-08-30T05:58:39.700Z,10.73
2022-08-30T06:01:07.259Z,9.50
2022-08-30T06:03:34.625Z,11.52
2022-08-30T06:06:01.758Z,12.85
2022-08-30T06:08:28.659Z,10.70
2022-08-30T06:10:55.545Z,14.38
2022-08-30T06:13:22.526Z,11.50
2022-08-30T06:15:49.713Z,12.82
2022-08-30T06:18:17.130Z,8.15
2022-08-30T06:20:50.181Z,9.40
2022-08-30T06:23:18.160Z,10.38
2022-08-30T06:25:45.087Z,9.60
2022-08-30T06:28:12.739Z,10.02
2022-08-30T06:30:42.103Z,6.82
2022-08-30T06:33:10.029Z,7.88
2022-08-30T06:35:46.750Z,5.35
2022-08-30T06:38:23.928Z,8.82
2022-08-30T06:40:51.036Z,6.35
2022-08-30T06:43:17.910Z,8.57
2022-08-30T06:45:44.807Z,11.57
2022-08-30T06:48:11.743Z,11.00
2022-08-30T06:50:38.649Z,10.18
2022-08-30T06:53:06.123Z,7.82
2022-08-30T06:55:36.281Z,11.32
2022-08-30T06:58:04.363Z,7.35
2022-08-30T07:00:31.253Z,6.95
2022-08-30T07:02:58.672Z,7.40
2022-08-30T07:05:25.774Z,8.07
2022-08-30T07:07:55.516Z,4.80
2022-08-30T07:10:22.456Z,6.38
2022-08-30T07:12:49.802Z,7.65
2022-08-30T07:15:20.643Z,5.95
2022-08-30T07:18:05.843Z,6.72
2022-08-30T07:20:40.260Z,8.20
2022-08-30T07:23:08.219Z,8.80
2022-08-30T07:25:37.277Z,7.00
2022-08-30T07:28:06.398Z,8.20
2022-08-30T07:30:34.078Z,7.40
2022-08-30T07:33:00.957Z,6.85
2022-08-30T07:35:28.425Z,7.97
2022-08-30T07:37:55.345Z,5.47
2022-08-30T07:40:22.498Z,5.28
2022-08-30T07:42:49.450Z,5.75
2022-08-30T07:45:16.491Z,7.10
2022-08-30T07:47:43.350Z,5.18
2022-08-30T07:50:10.196Z,5.78
2022-08-30T07:55:10.165Z,4.82
2022-08-30T07:57:37.239Z,3.78
2022-08-30T08:00:05.981Z,7.05
2022-08-30T08:02:33.729Z,6.38
2022-08-30T08:05:00.913Z,5.72
2022-08-30T08:07:27.824Z,6.93
2022-08-30T08:09:54.730Z,3.85
2022-08-30T08:12:21.642Z,7.57
2022-08-30T08:14:48.467Z,6.50
2022-08-30T08:17:15.314Z,3.92
2022-08-30T08:19:42.322Z,8.00
2022-08-30T08:22:20.672Z,8.25
2022-08-30T08:24:49.464Z,4.78
2022-08-30T08:27:16.494Z,5.50
2022-08-30T08:29:43.429Z,6.30
2022-08-30T08:32:10.329Z,6.28
2022-08-30T08:34:37.367Z,4.97
2022-08-30T08:37:05.170Z,6.78
2022-08-30T08:39:32.090Z,5.97
2022-08-30T08:42:20.405Z,5.50
2022-08-30T08:45:11.633Z,4.57
2022-08-30T08:48:02.624Z,7.43
2022-08-30T08:50:31.526Z,6.53
2022-08-30T08:53:46.493Z,6.25
2022-08-30T08:56:16.880Z,6.18
2022-08-30T08:58:48.285Z,4.90
2022-08-30T09:03:44.167Z,4.70
2022-08-30T09:06:20.529Z,3.90
2022-08-30T09:08:47.422Z,4.20
2022-08-30T09:11:26.277Z,4.80
2022-08-30T09:13:54.657Z,6.03
2022-08-30T09:16:49.212Z,6.18
2022-08-30T09:19:35.270Z,5.38
2022-08-30T09:22:05.984Z,4.45
2022-08-30T09:25:02.064Z,5.25
2022-08-30T09:27:32.069Z,5.05
2022-08-30T09:30:15.965Z,4.07
2022-08-30T09:32:52.510Z,3.30
2022-08-30T09:35:24.124Z,3.85
2022-08-30T09:37:57.785Z,4.05
2022-08-30T09:40:43.306Z,3.00
2022-08-30T09:43:17.486Z,4.68
2022-08-30T09:46:07.252Z,2.25
2022-08-30T09:48:45.547Z,4.97
2022-08-30T09:51:15.035Z,5.13
2022-08-30T09:54:07.148Z,2.10
2022-08-30T09:56:56.488Z,2.30
2022-08-30T09:59:57.733Z,3.85
2022-08-30T10:02:57.617Z,2.92
2022-08-30T10:08:41.516Z,5.35
2022-08-30T10:11:25.048Z,3.13
2022-08-30T10:14:08.573Z,3.45
2022-08-30T10:16:42.909Z,3.08
2022-08-30T10:19:09.799Z,3.90
2022-08-30T10:21:48.379Z,3.20
2022-08-30T10:24:31.231Z,2.17
2022-08-30T10:27:09.144Z,4.18
2022-08-30T10:29:53.513Z,2.15
2022-08-30T10:32:43.118Z,2.75
2022-08-30T10:35:25.972Z,2.70
2022-08-30T10:40:53.816Z,4.72
2022-08-30T10:44:08.740Z,2.63
2022-08-30T10:46:50.687Z,2.70
2022-08-30T10:49:23.642Z,2.70
2022-08-30T10:52:17.440Z,2.53
2022-08-30T10:54:48.629Z,3.25
2022-08-30T10:57:18.030Z,3.95
2022-08-30T11:00:08.093Z,5.85
2022-08-30T11:02:43.585Z,3.10
2022-08-30T11:05:41.963Z,2.65
2022-08-30T11:08:41.288Z,1.63
2022-08-30T11:11:29.892Z,1.30
2022-08-30T11:14:05.451Z,1.10
2022-08-30T11:16:39.834Z,1.65
2022-08-30T11:19:21.988Z,2.28
2022-08-30T11:21:51.062Z,2.28
2022-08-30T11:24:23.889Z,3.17
2022-08-30T11:26:57.584Z,2.58
2022-08-30T11:32:23.841Z,1.33
2022-08-30T11:34:56.777Z,2.53
2022-08-30T11:37:40.967Z,3.33
2022-08-30T11:40:14.252Z,1.83
2022-08-30T11:42:46.790Z,4.22
2022-08-30T11:45:25.173Z,3.20
2022-08-30T11:47:59.860Z,2.33
2022-08-30T11:50:32.819Z,2.08
2022-08-30T11:53:07.163Z,6.30
2022-08-30T11:55:45.191Z,3.83
2022-08-30T11:58:15.497Z,1.70
2022-08-30T12:00:52.572Z,1.70
2022-08-30T12:03:20.552Z,2.50
2022-08-30T12:06:10.235Z,2.95
2022-08-30T12:08:45.133Z,1.67
2022-08-30T12:11:14.183Z,3.72
2022-08-30T12:13:44.007Z,5.35
2022-08-30T12:16:19.931Z,2.38
2022-08-30T12:18:50.740Z,5.50
2022-08-30T12:21:21.331Z,3.88
2022-08-30T12:23:48.777Z,2.53
2022-08-30T12:26:25.099Z,2.30
2022-08-30T12:29:15.019Z,2.72
2022-08-30T12:31:49.923Z,3.45
2022-08-30T12:34:35.334Z,4.22
2022-08-30T12:37:08.744Z,4.93
2022-08-30T12:39:40.023Z,2.78
2022-08-30T12:42:28.195Z,1.40
2022-08-30T12:44:58.794Z,1.50
2022-08-30T12:47:46.765Z,5.28
2022-08-30T12:50:17.902Z,1.48
2022-08-30T12:52:48.585Z,1.80
2022-08-30T12:55:25.393Z,5.30
2022-08-30T12:58:01.156Z,2.55
2022-08-30T13:00:28.151Z,4.22
2022-08-30T13:02:58.060Z,1.58
2022-08-30T13:05:44.529Z,3.13
2022-08-30T13:08:21.463Z,6.78
2022-08-30T13:10:54.230Z,3.50
2022-08-30T13:13:52.066Z,1.65
2022-08-30T13:16:22.376Z,2.40
2022-08-30T13:19:13.822Z,2.50
2022-08-30T13:24:16.900Z,2.45
2022-08-30T13:26:45.198Z,2.65
2022-08-30T13:29:19.028Z,1.50
2022-08-30T13:31:46.537Z,3.50
2022-08-30T13:34:19.081Z,4.33
2022-08-30T13:36:53.477Z,3.60
2022-08-30T13:39:21.863Z,2.25
2022-08-30T13:41:49.444Z,5.80
2022-08-30T13:44:16.619Z,2.53
2022-08-30T13:46:53.024Z,2.47
2022-08-30T13:49:45.927Z,4.30
2022-08-30T13:52:21.699Z,1.52
2022-08-30T13:54:54.435Z,2.55
2022-08-30T14:00:17.653Z,3.90
2022-08-30T14:02:50.120Z,4.95
2022-08-30T14:05:47.512Z,3.13
2022-08-30T14:11:01.518Z,2.90
2022-08-30T14:13:29.395Z,1.92
2022-08-30T14:18:45.303Z,2.90
2022-08-30T14:21:12.233Z,5.95
2022-08-30T14:23:39.143Z,3.25
2022-08-30T14:26:12.136Z,3.08
2022-08-30T14:28:39.275Z,3.00
2022-08-30T14:31:06.498Z,6.47
2022-08-30T14:33:33.643Z,5.35
2022-08-30T14:36:00.530Z,5.15
2022-08-30T14:38:27.476Z,6.78
2022-08-30T14:40:54.519Z,5.68
2022-08-30T14:43:21.468Z,3.72
2022-08-30T14:45:50.864Z,4.97
2022-08-30T14:48:18.018Z,6.80
2022-08-30T14:50:46.797Z,2.17
2022-08-30T14:53:13.688Z,2.88
2022-08-30T14:55:41.865Z,1.40
2022-08-30T14:58:10.780Z,3.85
2022-08-30T15:00:38.711Z,4.00
2022-08-30T15:03:05.919Z,3.05
2022-08-30T15:05:32.741Z,3.20
2022-08-30T15:07:59.801Z,2.95
2022-08-30T15:10:27.267Z,3.50
2022-08-30T15:12:54.184Z,3.63
2022-08-30T15:15:22.340Z,3.35
2022-08-30T15:17:49.555Z,2.05
2022-08-30T15:20:20.809Z,3.38
2022-08-30T15:22:47.803Z,3.20
2022-08-30T15:25:14.823Z,2.75
2022-08-30T15:27:41.777Z,4.97
2022-08-30T15:30:11.081Z,3.97
2022-08-30T15:32:38.081Z,4.18
2022-08-30T15:35:05.885Z,3.90
2022-08-30T15:37:35.105Z,4.80
2022-08-30T15:40:04.756Z,2.83
2022-08-30T15:42:33.750Z,2.13
2022-08-30T15:45:00.718Z,2.05
2022-08-30T15:47:27.738Z,1.13
2022-08-30T15:49:56.839Z,4.70
2022-08-30T15:52:24.492Z,4.93
2022-08-30T15:54:51.667Z,3.95
2022-08-30T15:57:19.063Z,2.25
2022-08-30T15:59:46.014Z,3.00
2022-08-30T16:02:13.016Z,5.07
2022-08-30T16:04:40.563Z,2.50
2022-08-30T16:07:08.868Z,3.08
2022-08-30T16:09:37.087Z,2.75
2022-08-30T16:12:06.751Z,1.90
2022-08-30T16:14:34.713Z,3.55
2022-08-30T16:17:02.113Z,2.22
2022-08-30T16:19:29.134Z,1.90
2022-08-30T16:21:56.648Z,2.38
2022-08-30T16:24:24.890Z,0.93
2022-08-30T16:26:52.127Z,3.45
2022-08-30T16:29:19.034Z,1.65
2022-08-30T16:31:47.566Z,2.22
2022-08-30T16:34:16.840Z,2.60
2022-08-30T16:36:43.820Z,2.50
2022-08-30T16:39:13.507Z,2.55
2022-08-30T16:41:41.857Z,1.20
2022-08-30T16:44:09.430Z,3.60
2022-08-30T16:46:40.295Z,1.52
2022-08-30T16:49:08.976Z,1.80
2022-08-30T16:51:36.882Z,2.70
2022-08-30T16:54:07.849Z,1.75
2022-08-30T16:56:36.309Z,2.28
2022-08-30T16:59:09.030Z,4.45
2022-08-30T17:01:38.847Z,1.45
2022-08-30T17:04:08.287Z,2.80
2022-08-30T17:06:36.051Z,3.30
2022-08-30T17:09:04.307Z,3.53
2022-08-30T17:11:32.366Z,4.28
2022-08-30T17:13:59.544Z,4.32
2022-08-30T17:16:29.961Z,4.10
2022-08-30T17:19:00.368Z,4.80
2022-08-30T17:21:29.664Z,5.93
2022-08-30T17:24:02.495Z,1.60
2022-08-30T17:26:32.365Z,3.38
2022-08-30T17:28:59.349Z,2.65
2022-08-30T17:31:30.401Z,5.43
2022-08-30T17:34:03.337Z,3.00
2022-08-30T17:36:36.374Z,4.75
2022-08-30T17:39:11.015Z,4.07
2022-08-30T17:41:40.103Z,5.68
2022-08-30T17:44:10.738Z,3.17
2022-08-30T17:46:38.434Z,2.13
2022-08-30T17:49:05.928Z,1.75
2022-08-30T17:51:33.153Z,2.78
2022-08-30T17:54:00.470Z,3.60
2022-08-30T17:56:34.019Z,1.80
2022-08-30T17:59:01.343Z,3.97
2022-08-30T18:01:28.656Z,3.60
2022-08-30T18:04:02.000Z,3.28
2022-08-30T18:06:33.342Z,3.20
2022-08-30T18:09:06.561Z,3.85
2022-08-30T18:11:36.146Z,3.72
2022-08-30T18:14:04.288Z,2.28
2022-08-30T18:16:36.095Z,3.28
2022-08-30T18:19:04.697Z,2.22
2022-08-30T18:21:37.790Z,1.80
2022-08-30T18:24:06.020Z,3.35
2022-08-30T18:26:33.517Z,3.88
2022-08-30T18:29:00.689Z,4.53
2022-08-30T18:31:27.584Z,3.38
2022-08-30T18:33:55.442Z,5.03
2022-08-30T18:36:22.378Z,2.05
2022-08-30T18:38:49.235Z,3.35
2022-08-30T18:41:17.295Z,4.47
2022-08-30T18:43:44.973Z,1.95
2022-08-30T18:46:14.178Z,1.65
2022-08-30T18:48:41.727Z,3.75
2022-08-30T18:51:20.681Z,2.35
2022-08-30T18:53:49.232Z,2.13
2022-08-30T18:56:17.157Z,1.63
2022-08-30T18:58:45.946Z,3.80
2022-08-30T19:01:13.455Z,3.33
2022-08-30T19:03:41.885Z,1.88
2022-08-30T19:06:11.612Z,4.18
2022-08-30T19:08:40.298Z,2.47
2022-08-30T19:11:08.970Z,4.97
2022-08-30T19:13:37.018Z,6.68
2022-08-30T19:16:05.676Z,4.13
2022-08-30T19:18:33.280Z,1.23
2022-08-30T19:21:00.316Z,2.40
2022-08-30T19:23:33.968Z,5.97
2022-08-30T19:26:01.388Z,1.85
2022-08-30T19:28:28.605Z,4.85
2022-08-30T19:30:55.518Z,1.92
2022-08-30T19:33:29.177Z,3.03
2022-08-30T19:35:56.956Z,3.15
2022-08-30T19:38:24.077Z,2.97
2022-08-30T19:40:58.587Z,1.92
2022-08-30T19:43:27.035Z,2.45
2022-08-30T19:45:58.870Z,3.60
2022-08-30T19:48:32.932Z,2.83
2022-08-30T19:51:08.590Z,1.85
2022-08-30T19:53:36.586Z,1.63
2022-08-30T19:56:03.873Z,1.58
2022-08-30T19:58:30.765Z,4.93
2022-08-30T20:01:10.893Z,2.50
2022-08-30T20:03:40.335Z,2.95
2022-08-30T20:06:08.957Z,4.10
2022-08-30T20:08:36.715Z,5.80
2022-08-30T20:11:04.943Z,3.78
2022-08-30T20:13:33.784Z,3.53
2022-08-30T20:16:01.396Z,1.70
2022-08-30T20:18:29.051Z,4.60
2022-08-30T20:20:56.416Z,3.38
2022-08-30T20:23:25.385Z,8.35
2022-08-30T20:25:54.577Z,3.03
2022-08-30T20:28:22.204Z,5.13
2022-08-30T20:30:49.744Z,4.32
2022-08-30T20:33:17.661Z,7.60
2022-08-30T20:35:49.012Z,3.72
2022-08-30T20:38:23.849Z,9.98
2022-08-30T20:40:54.624Z,4.75
2022-08-30T20:43:24.161Z,4.72
2022-08-30T20:45:51.737Z,4.45
2022-08-30T20:48:19.590Z,2.53
2022-08-30T20:50:46.715Z,3.92
2022-08-30T20:53:14.173Z,3.60
2022-08-30T20:55:46.504Z,4.28
2022-08-30T20:58:14.493Z,6.47
2022-08-30T21:00:45.788Z,16.60
2022-08-30T21:03:26.205Z,16.77
2022-08-30T21:05:56.199Z,12.82
2022-08-30T21:08:23.115Z,19.85
2022-08-30T21:10:50.072Z,13.82
2022-08-30T21:13:17.343Z,6.90
2022-08-30T21:15:47.461Z,9.00
2022-08-30T21:18:14.630Z,5.43
2022-08-30T21:20:41.895Z,6.65
2022-08-30T21:23:08.923Z,4.25
2022-08-30T21:25:39.583Z,3.35
2022-08-30T21:28:07.054Z,3.13
2022-08-30T21:30:35.084Z,3.22
2022-08-30T21:33:04.132Z,5.78
2022-08-30T21:35:51.673Z,2.15
2022-08-30T21:38:20.012Z,2.80
2022-08-30T21:40:48.522Z,3.42
2022-08-30T21:43:18.719Z,3.35
2022-08-30T21:45:45.809Z,1.33
2022-08-30T21:48:15.313Z,1.80
2022-08-30T21:50:43.163Z,2.38
2022-08-30T21:53:10.645Z,2.40
2022-08-30T21:55:37.842Z,2.20
2022-08-30T21:58:04.855Z,1.80
2022-08-30T22:00:33.657Z,3.00
2022-08-30T22:03:00.720Z,1.95
2022-08-30T22:05:27.765Z,4.05
2022-08-30T22:07:54.666Z,1.23
2022-08-30T22:10:21.607Z,1.17
2022-08-30T22:12:48.497Z,1.85
2022-08-30T22:15:15.614Z,2.60
2022-08-30T22:17:43.579Z,2.35
2022-08-30T22:20:12.021Z,1.98
2022-08-30T22:22:45.546Z,1.15
2022-08-30T22:25:12.637Z,3.17
2022-08-30T22:27:39.567Z,4.82
2022-08-30T22:30:06.983Z,4.70
2022-08-30T22:32:33.921Z,1.70
2022-08-30T22:35:00.815Z,2.75
2022-08-30T22:37:27.700Z,1.83
2022-08-30T22:39:54.762Z,1.58
2022-08-30T22:42:21.726Z,1.25
2022-08-30T22:44:48.600Z,2.22
2022-08-30T22:47:15.482Z,1.80
2022-08-30T22:49:42.369Z,1.25
2022-08-30T22:52:09.281Z,3.60
2022-08-30T22:54:37.152Z,2.55
2022-08-30T22:57:04.627Z,1.90
2022-08-30T22:59:32.462Z,6.20
2022-08-30T23:01:59.937Z,7.85
2022-08-30T23:04:26.983Z,14.13
2022-08-30T23:06:53.908Z,10.30
2022-08-30T23:09:20.856Z,8.65
2022-08-30T23:11:47.844Z,11.27
2022-08-30T23:14:14.845Z,12.25
2022-08-30T23:16:41.747Z,8.00
2022-08-30T23:19:09.188Z,10.93
2022-08-30T23:21:36.110Z,11.85
2022-08-30T23:24:21.515Z,11.60
2022-08-30T23:27:06.886Z,18.25
2022-08-30T23:29:53.912Z,15.70
2022-08-30T23:32:39.847Z,12.90
2022-08-30T23:35:29.440Z,12.73
2022-08-30T23:38:18.494Z,6.80
2022-08-30T23:41:03.855Z,5.05
2022-08-30T23:43:49.102Z,7.05
2022-08-30T23:46:34.790Z,4.63
2022-08-30T23:49:20.547Z,7.65
2022-08-30T23:52:05.918Z,4.18
2022-08-30T23:54:51.988Z,4.93
2022-08-30T23:57:43.790Z,4.80
